createdAt,value
2023-01-21T00:05:34.694Z,22.2164
2023-01-21T00:20:36.607Z,23.1295
2023-01-21T00:35:38.537Z,21.9564
2023-01-21T00:50:40.424Z,22.3724
2023-01-21T01:05:42.353Z,22.8045
2023-01-21T01:20:44.257Z,22.6256
2023-01-21T01:35:46.240Z,22.1997
2023-01-21T01:50:48.396Z,22.6708
2023-01-21T02:05:50.306Z,22.0146
2023-01-21T02:20:52.195Z,21.8233
2023-01-21T02:35:54.101Z,22.4046
2023-01-21T02:50:56.174Z,21.9527
2023-01-21T03:05:58.185Z,22.1285
2023-01-21T03:21:00.280Z,21.5924
2023-01-21T03:36:02.245Z,21.6735
2023-01-21T03:51:04.191Z,22.5247
2023-01-21T04:06:06.126Z,21.1665
2023-01-21T04:21:08.021Z,22.1316
2023-01-21T04:36:09.935Z,21.4816
2023-01-21T04:51:12.045Z,21.6927
2023-01-21T05:06:13.970Z,22.2746
2023-01-21T05:21:15.886Z,21.5466
2023-01-21T05:36:17.802Z,21.5305
2023-01-21T05:51:19.784Z,22.2387
2023-01-21T06:06:21.670Z,21.2575
2023-01-21T06:21:23.578Z,21.4197
2023-01-21T06:36:25.754Z,21.6704
2023-01-21T06:51:27.656Z,21.3906
2023-01-21T07:06:29.629Z,21.6407
2023-01-21T07:21:31.596Z,21.6865
2023-01-21T07:36:33.520Z,21.5627
2023-01-21T07:51:35.373Z,21.3646
2023-01-21T08:06:37.257Z,21.7905
2023-01-21T08:21:39.390Z,21.2018
2023-01-21T08:36:41.850Z,20.8539
2023-01-21T08:51:43.737Z,20.2138
2023-01-21T09:06:45.685Z,19.6709
2023-01-21T09:21:47.687Z,19.8789
2023-01-21T09:36:49.645Z,20.2559
2023-01-21T09:51:52.695Z,21.0099
2023-01-21T10:06:54.766Z,19.9699
2023-01-21T10:21:56.718Z,20.7078
2023-01-21T10:36:58.632Z,20.0739
2023-01-21T10:52:00.510Z,22.1508
2023-01-21T11:07:02.442Z,21.4395
2023-01-21T11:22:04.603Z,20.8966
2023-01-21T11:37:06.711Z,20.5227
2023-01-21T11:52:08.671Z,19.9928
2023-01-21T12:07:10.664Z,19.4728
2023-01-21T12:22:12.599Z,18.7386
2023-01-21T12:37:14.489Z,20.0968
2023-01-21T12:52:16.446Z,19.4338
2023-01-21T13:07:18.363Z,20.3339
2023-01-21T13:22:20.281Z,19.869
2023-01-21T13:37:22.249Z,19.2351
2023-01-21T13:52:24.251Z,20.233
2023-01-21T14:07:26.202Z,20.2423
2023-01-21T14:22:28.155Z,20.22
2023-01-21T14:37:30.111Z,19.791
2023-01-21T14:52:32.060Z,20.1519
2023-01-21T15:07:33.983Z,19.7359
2023-01-21T15:22:35.919Z,19.6641
2023-01-21T15:37:37.924Z,20.3401
2023-01-21T15:52:39.806Z,19.362
2023-01-21T16:07:41.769Z,20.5512
2023-01-21T16:22:43.769Z,19.8882
2023-01-21T16:37:45.691Z,20.116
2023-01-21T16:52:47.630Z,20.454
2023-01-21T17:07:49.951Z,20.0962
2023-01-21T17:22:51.886Z,20.961
2023-01-21T17:37:53.849Z,20.1358
2023-01-21T17:52:55.739Z,20.558
2023-01-21T18:07:57.661Z,20.0801
2023-01-21T18:22:59.621Z,19.739
2023-01-21T18:38:01.679Z,20.441
2023-01-21T18:53:03.651Z,19.9111
2023-01-21T19:08:05.592Z,20.1779
2023-01-21T19:23:07.494Z,19.973
2023-01-21T19:38:09.438Z,20.5351
2023-01-21T19:53:11.480Z,20.35
2023-01-21T20:08:13.412Z,20.5091
2023-01-21T20:23:15.314Z,21.13
2023-01-21T20:38:17.226Z,20.2138
2023-01-21T20:53:19.120Z,19.895
2023-01-21T21:08:21.054Z,20.7889
2023-01-21T21:23:23.044Z,20.558
2023-01-21T21:38:24.975Z,20.363
2023-01-21T21:53:26.941Z,21.7837
2023-01-21T22:08:28.896Z,21.8029
2023-01-21T22:23:30.822Z,21.3776
2023-01-21T22:38:32.868Z,20.8118
2023-01-21T22:53:34.791Z,20.7697
2023-01-21T23:08:36.712Z,21.9917
2023-01-21T23:23:38.745Z,21.9626
2023-01-21T23:38:40.702Z,22.4436
2023-01-21T23:53:42.616Z,22.5705
